• Join FlightAware (Why Join?)
  • Login
  • US Flag 
07:43PM EDT


 

Airport Tracker/Info


-or-


 

Live Flight TrackerFlight Track Log ✈ N884FT ✈ 26-Oct-2013 ✈ KMLB - KPIE

Flight Track Log - Related Links

Times and Time Zones

All times are in EDT time to prevent confusion due to time zone crossing. See the N884FT flight status page for this flight to view local times or setup timezone preferences in your user account.

Time Position Orientation Groundspeed Altitude Reporting Facility
EDT Latitude Longitude Course Direction KTS MPH feet Rate Location/Type
03:20PM 28.1000 -80.6500 90° East 82 94 600  Level Orlando TRACON
03:20PM 28.1000 -80.6333 90° East 80 92 900 780 Climbing Orlando TRACON
03:21PM 28.1000 -80.6000 90° East 102 117 1,600 600 Climbing Orlando TRACON
03:22PM 28.1000 -80.5667 90° East 112 129 2,200 600 Climbing Orlando TRACON
03:23PM 28.0833 -80.5667 180° South 114 131 2,800 600 Climbing Orlando TRACON
03:24PM 28.0667 -80.6000 240° Southwest 111 128 3,400 540 Climbing Orlando TRACON
03:25PM 28.0833 -80.6333 300° West 99 114 4,000 240 Climbing Orlando TRACON
03:26PM 28.0833 -80.6667 270° West 131 151 4,000  Level Orlando TRACON
03:27PM 28.1000 -80.7000 300° West 127 146 4,100  Climbing Orlando TRACON
03:28PM 28.1000 -80.7500 270° West 144 166 4,000  Descending Orlando TRACON
03:29PM 28.1167 -80.7833 300° West 135 155 4,100  Climbing Orlando TRACON
03:30PM 28.1000 -80.8333 249° West 141 162 4,000 -60 Descending Orlando TRACON
03:32PM 28.1000 -80.8833 270° West 138 159 4,000  Level Orlando TRACON
03:33PM 28.1000 -80.9167 270° West 139 160 4,000  Level Orlando TRACON
03:34PM 28.1000 -80.9667 270° West 138 159 4,000  Level Orlando TRACON
03:34PM 28.1000 -81.0000 270° West 138 159 4,000  Level Orlando TRACON
03:36PM 28.0833 -81.0500 249° West 142 163 4,000  Level Orlando TRACON
03:37PM 28.0833 -81.1000 270° West 142 163 4,100 300 Climbing Orlando TRACON
03:38PM 28.1000 -81.1333 300° West 129 148 4,600 480 Climbing Orlando TRACON
03:39PM 28.1000 -81.1833 270° West 131 151 5,100 180 Climbing Orlando TRACON
03:40PM 28.1000 -81.2167 270° West 147 169 5,000 -60 Descending Orlando TRACON
03:41PM 28.0833 -81.2667 249° West 146 168 5,000  Level Orlando TRACON
03:42PM 28.0667 -81.3000 240° Southwest 145 167 5,000  Level Orlando TRACON
03:43PM 28.0667 -81.3500 270° West 141 162 5,000  Level Orlando TRACON
03:44PM 28.0667 -81.4000 270° West 143 165 5,000  Level Orlando TRACON
03:45PM 28.0667 -81.4333 270° West 142 163 5,000  Level Orlando TRACON
03:46PM 28.0667 -81.4833 270° West 144 166 5,000 240 Level Orlando TRACON
03:48PM 28.0500 -81.5667 257° West 135 155 5,900 300 Climbing Tampa TRACON
03:49PM 28.0333 -81.6167 249° West 144 166 6,000  Climbing Tampa TRACON
03:50PM 28.0333 -81.6667 270° West 145 167 6,000  Level Tampa TRACON
03:51PM 28.0167 -81.7167 249° West 139 160 6,000  Level Tampa TRACON
03:52PM 28.0167 -81.7500 270° West 141 162 6,000  Level Tampa TRACON
03:53PM 28.0167 -81.8000 270° West 140 161 6,000  Level Tampa TRACON
03:54PM 28.0167 -81.8333 270° West 140 161 6,000  Level Tampa TRACON
03:55PM 28.0000 -81.8833 249° West 142 163 6,000  Level Tampa TRACON
03:56PM 28.0000 -81.9167 270° West 141 162 6,000  Level Tampa TRACON
03:57PM 28.0000 -81.9667 270° West 141 162 6,000 -240 Level Tampa TRACON
03:58PM 27.9833 -82.0167 249° West 152 175 5,600 -420 Descending Tampa TRACON
03:59PM 27.9833 -82.0667 270° West 160 184 5,200 -480 Descending Tampa TRACON
04:00PM 27.9833 -82.1167 270° West 159 183 4,700 -540 Descending Tampa TRACON
04:01PM 27.9667 -82.1667 249° West 163 188 4,200 -420 Descending Tampa TRACON
04:02PM 27.9667 -82.2167 270° West 163 188 3,900 -120 Descending Tampa TRACON
04:03PM 27.9667 -82.2667 270° West 146 168 4,000  Climbing Tampa TRACON
04:04PM 27.9667 -82.3000 270° West 152 175 4,000  Level Tampa TRACON
04:05PM 27.9667 -82.3500 270° West 151 174 4,000  Level Tampa TRACON
04:06PM 27.9667 -82.4000 270° West 146 168 4,000  Level Tampa TRACON
04:07PM 27.9667 -82.4500 270° West 144 166 4,000  Level Tampa TRACON
04:08PM 27.9667 -82.5000 270° West 147 169 4,000  Level Tampa TRACON
04:09PM 27.9667 -82.5333 270° West 148 170 4,000  Level Tampa TRACON
04:10PM 27.9667 -82.5833 270° West 145 167 4,000  Level Tampa TRACON
04:11PM 27.9667 -82.6333 270° West 147 169 4,000  Level Tampa TRACON
04:12PM 27.9667 -82.6833 270° West 145 167 4,000 -120 Level Tampa TRACON
04:13PM 27.9500 -82.7167 240° Southwest 150 173 3,800 -360 Descending Tampa TRACON
04:14PM 27.9167 -82.7500 221° Southwest 154 177 3,300 -540 Descending Tampa TRACON
04:15PM 27.8833 -82.7500 180° South 152 175 2,800 -360 Descending Tampa TRACON
04:16PM 27.8500 -82.7500 180° South 128 147 2,600 -300 Descending Tampa TRACON
04:17PM 27.8333 -82.7167 119° Southeast 100 115 2,200 -600 Descending Tampa TRACON
04:18PM 27.8500 -82.6833 61° Northeast 100 115 1,400 -780 Descending Tampa TRACON
04:19PM 27.8667 -82.6833 360° North 93 107 700 -240 Descending Tampa TRACON
04:21PM 27.9167 -82.6833 360° North 86 99 800 180 Climbing Tampa TRACON
04:22PM 27.9333 -82.7000 319° Northwest 90 104 1,300 660 Climbing Tampa TRACON